Time;durP1;ratioP1;P1;durP2;ratioP2;P2;SDS_P1;SDS_P2;PMS_P1;PMS_P2;Temp;Humidity;BMP_temperature;BMP_pressure;BME280_temperature;BME280_humidity;BME280_pressure;Samples;Min_cycle;Max_cycle;Signal;HPM_P1;HPM_P2
2023/09/02 00:01:01;;;;;;;33.15;15.13;;;;;;;16.07;100.00;101716.34;6053252;19;20284;-68
2023/09/02 00:03:07;;;;;;;40.25;18.30;;;;;;;16.02;100.00;101723.69;6063866;19;20598;-70
2023/09/02 00:05:12;;;;;;;34.28;16.38;;;;;;;16.00;100.00;101714.94;6060485;19;20223;-70
2023/09/02 00:07:14;;;;;;;33.33;15.23;;;;;;;15.95;100.00;101715.16;6054289;19;20070;-70
2023/09/02 00:09:19;;;;;;;33.97;15.10;;;;;;;15.91;100.00;101712.75;6056930;19;20310;-67
2023/09/02 00:11:24;;;;;;;30.70;14.88;;;;;;;15.87;100.00;101714.66;6051414;19;20323;-69
2023/09/02 00:13:31;;;;;;;34.72;16.48;;;;;;;15.85;100.00;101713.91;6047273;19;20225;-68
2023/09/02 00:15:38;;;;;;;33.60;15.95;;;;;;;15.82;100.00;101719.34;6051671;19;20216;-69
2023/09/02 00:17:44;;;;;;;33.80;16.63;;;;;;;15.80;100.00;101711.47;6052364;19;20038;-68
2023/09/02 00:19:49;;;;;;;32.53;15.48;;;;;;;15.72;100.00;101708.34;6056120;19;20150;-68
2023/09/02 00:21:55;;;;;;;30.75;14.60;;;;;;;15.71;100.00;101708.41;6047102;19;20280;-66
2023/09/02 00:24:05;;;;;;;30.60;16.35;;;;;;;15.67;100.00;101709.47;6056027;19;20049;-70
2023/09/02 00:26:10;;;;;;;34.90;16.73;;;;;;;15.61;100.00;101697.34;6063417;19;20034;-70
2023/09/02 00:28:16;;;;;;;37.25;16.10;;;;;;;15.53;100.00;101703.03;6052107;19;20026;-68
2023/09/02 00:30:21;;;;;;;31.67;14.10;;;;;;;15.48;100.00;101709.47;6060584;19;20394;-68
2023/09/02 00:32:28;;;;;;;32.10;16.55;;;;;;;15.45;100.00;101706.97;6051865;19;20021;-69
2023/09/02 00:34:36;;;;;;;28.55;15.65;;;;;;;15.42;100.00;101712.41;6059333;19;20098;-69
2023/09/02 00:36:41;;;;;;;33.75;17.65;;;;;;;15.43;100.00;101711.47;6060921;19;20051;-69
2023/09/02 00:38:46;;;;;;;32.15;16.50;;;;;;;15.42;100.00;101715.91;6059444;19;20003;-69
2023/09/02 00:41:00;;;;;;;31.98;15.18;;;;;;;15.39;100.00;101710.75;6056399;19;20019;-68
2023/09/02 00:43:04;;;;;;;34.20;14.73;;;;;;;15.37;100.00;101717.91;6063661;19;20010;-68
2023/09/02 00:45:10;;;;;;;34.92;16.50;;;;;;;15.39;100.00;101709.91;6057849;19;20509;-69
2023/09/02 00:47:15;;;;;;;34.92;16.88;;;;;;;15.35;100.00;101710.06;6058357;19;20027;-69
2023/09/02 00:49:23;;;;;;;44.40;19.05;;;;;;;15.38;100.00;101709.06;6060134;19;20022;-68
2023/09/02 00:51:31;;;;;;;38.70;17.63;;;;;;;15.36;100.00;101717.06;6058301;19;20021;-69
2023/09/02 00:53:36;;;;;;;34.13;16.45;;;;;;;15.23;100.00;101705.31;6061893;19;20038;-69
2023/09/02 00:55:41;;;;;;;33.08;15.27;;;;;;;15.19;100.00;101702.88;6055301;19;20388;-69
2023/09/02 00:57:47;;;;;;;34.38;14.50;;;;;;;15.17;100.00;101704.75;6049381;19;20011;-69
2023/09/02 00:59:52;;;;;;;35.25;16.45;;;;;;;15.06;100.00;101703.44;6056278;19;20420;-68
2023/09/02 01:02:03;;;;;;;32.30;13.82;;;;;;;15.02;100.00;101716.88;6054786;19;20367;-69
2023/09/02 01:04:09;;;;;;;30.20;15.18;;;;;;;14.97;100.00;101713.59;6060383;19;20006;-69
2023/09/02 01:06:17;;;;;;;33.05;14.10;;;;;;;14.93;100.00;101713.72;6057670;19;20011;-69
2023/09/02 01:08:22;;;;;;;30.90;14.18;;;;;;;14.86;100.00;101714.91;6059735;19;20457;-68
2023/09/02 01:10:31;;;;;;;34.70;14.95;;;;;;;14.88;100.00;101715.72;6059254;19;20621;-68
2023/09/02 01:12:36;;;;;;;32.60;15.18;;;;;;;14.86;100.00;101720.22;6055408;19;20014;-67
2023/09/02 01:14:43;;;;;;;28.38;13.77;;;;;;;14.84;100.00;101726.50;6056808;19;20011;-67
2023/09/02 01:16:48;;;;;;;34.40;15.65;;;;;;;14.79;100.00;101721.41;6053189;19;20813;-68
2023/09/02 01:18:53;;;;;;;31.00;15.23;;;;;;;14.75;100.00;101716.34;6055288;19;20466;-67
2023/09/02 01:21:22;;;;;;;34.55;15.45;;;;;;;14.71;100.00;101719.09;6051663;19;20603;-68
2023/09/02 01:23:47;;;;;;;34.50;15.43;;;;;;;14.71;100.00;101724.38;6056438;19;20681;-69
2023/09/02 01:26:19;;;;;;;28.48;14.35;;;;;;;14.70;100.00;101727.13;6060533;19;20098;-68
2023/09/02 01:28:32;;;;;;;31.17;15.00;;;;;;;14.73;100.00;101731.41;6047914;19;20590;-68
2023/09/02 01:30:37;;;;;;;32.45;14.80;;;;;;;14.83;100.00;101735.38;6049314;19;20475;-67
2023/09/02 01:32:44;;;;;;;40.63;17.60;;;;;;;14.89;100.00;101732.44;6044500;19;20323;-67
2023/09/02 01:34:48;;;;;;;41.05;18.35;;;;;;;14.96;100.00;101733.91;6051036;19;20184;-68
2023/09/02 01:36:55;;;;;;;38.78;17.92;;;;;;;15.06;100.00;101742.28;6049781;19;20322;-68
2023/09/02 01:39:02;;;;;;;42.20;17.60;;;;;;;15.11;100.00;101743.81;6064245;19;20018;-68
2023/09/02 01:41:08;;;;;;;55.78;19.10;;;;;;;15.20;100.00;101739.03;6054380;19;20010;-68
2023/09/02 01:43:17;;;;;;;39.80;17.13;;;;;;;15.24;100.00;101737.94;6050227;19;20006;-68
2023/09/02 01:45:32;;;;;;;40.42;16.58;;;;;;;15.28;100.00;101743.03;6049329;19;22936;-69
2023/09/02 01:47:38;;;;;;;33.08;16.45;;;;;;;15.27;100.00;101740.44;6051612;19;20011;-68
2023/09/02 01:49:43;;;;;;;55.95;18.60;;;;;;;15.31;100.00;101742.88;6061206;19;20187;-69
2023/09/02 01:51:46;;;;;;;44.33;17.88;;;;;;;15.30;100.00;101743.84;6059857;19;20002;-69
2023/09/02 01:53:51;;;;;;;38.22;17.75;;;;;;;15.31;100.00;101745.53;6049093;19;20220;-70
2023/09/02 01:56:02;;;;;;;36.40;16.55;;;;;;;15.32;100.00;101749.91;6055757;19;20478;-69
2023/09/02 01:58:07;;;;;;;39.22;17.08;;;;;;;15.38;100.00;101748.78;6058493;19;20038;-70
2023/09/02 02:00:13;;;;;;;37.67;17.50;;;;;;;15.38;100.00;101756.72;6065922;19;20588;-69
2023/09/02 02:02:21;;;;;;;45.20;16.92;;;;;;;15.40;100.00;101756.63;6059536;19;20042;-69
2023/09/02 02:04:35;;;;;;;40.05;17.52;;;;;;;15.40;100.00;101759.28;6060417;19;20191;-70
2023/09/02 02:06:42;;;;;;;30.77;15.45;;;;;;;15.37;100.00;101753.19;6051732;19;20003;-69
2023/09/02 02:08:55;;;;;;;40.08;16.38;;;;;;;15.39;100.00;101758.44;6064217;19;20323;-70
2023/09/02 02:10:59;;;;;;;;;;;;;;;15.41;100.00;101766.31;6069578;19;20714;-67
2023/09/02 02:13:06;;;;;;;37.83;17.23;;;;;;;15.43;100.00;101775.03;6063233;19;19919;-69
2023/09/02 02:15:13;;;;;;;40.92;17.17;;;;;;;15.45;100.00;101778.47;6064142;19;20031;-70
2023/09/02 02:17:21;;;;;;;34.70;17.30;;;;;;;15.50;100.00;101771.19;6061344;19;20259;-70
2023/09/02 02:19:28;;;;;;;39.92;16.70;;;;;;;15.49;100.00;101769.47;6053655;19;20090;-67
2023/09/02 02:21:36;;;;;;;40.28;16.55;;;;;;;15.48;100.00;101765.09;6061345;19;20209;-68
2023/09/02 02:23:41;;;;;;;33.17;16.60;;;;;;;15.46;100.00;101767.81;6064443;19;20012;-68
2023/09/02 02:25:47;;;;;;;37.78;16.73;;;;;;;15.47;100.00;101766.03;6061454;19;20547;-68
2023/09/02 02:27:52;;;;;;;30.98;15.70;;;;;;;15.43;100.00;101770.63;6057602;19;20352;-68
2023/09/02 02:30:00;;;;;;;35.83;16.35;;;;;;;15.45;100.00;101771.38;6058735;19;20420;-70
2023/09/02 02:32:06;;;;;;;31.70;15.02;;;;;;;15.43;100.00;101769.72;6055223;19;20240;-68
2023/09/02 02:34:14;;;;;;;31.17;15.18;;;;;;;15.43;100.00;101770.63;6062398;19;20033;-68
2023/09/02 02:36:19;;;;;;;29.73;14.60;;;;;;;15.42;100.00;101768.88;6060067;19;20207;-69
2023/09/02 02:38:26;;;;;;;37.47;16.70;;;;;;;15.49;100.00;101764.16;6061233;19;20487;-70
2023/09/02 02:40:31;;;;;;;34.65;15.82;;;;;;;15.48;100.00;101763.31;6081551;19;20498;-68
2023/09/02 02:42:36;;;;;;;29.70;14.27;;;;;;;15.48;100.00;101768.63;6074337;19;20014;-67
2023/09/02 02:44:40;;;;;;;29.30;14.30;;;;;;;15.46;100.00;101761.66;6082576;19;20031;-68
2023/09/02 02:46:46;;;;;;;25.95;13.75;;;;;;;15.42;100.00;101763.59;6078055;19;20311;-68
2023/09/02 02:48:49;;;;;;;31.27;15.25;;;;;;;15.39;100.00;101761.06;6093956;19;20022;-67
2023/09/02 02:50:58;;;;;;;;;;;;;;;15.37;100.00;101760.28;6082497;19;20607;-67
2023/09/02 02:53:05;;;;;;;25.30;12.38;;;;;;;15.34;100.00;101766.56;6070064;19;20326;-67
2023/09/02 02:55:11;;;;;;;29.15;14.13;;;;;;;15.36;100.00;101764.72;6077093;19;20460;-68
2023/09/02 02:57:16;;;;;;;29.25;13.48;;;;;;;15.37;100.00;101768.22;6064739;19;21549;-70
2023/09/02 02:59:21;;;;;;;28.05;13.93;;;;;;;15.35;100.00;101770.97;6064752;19;20030;-69
2023/09/02 03:01:30;;;;;;;28.17;14.18;;;;;;;15.36;100.00;101770.03;6065781;19;20006;-69
2023/09/02 03:03:35;;;;;;;25.88;12.85;;;;;;;15.37;100.00;101757.63;6061246;19;20525;-69
2023/09/02 03:05:44;;;;;;;32.13;16.02;;;;;;;15.37;100.00;101769.09;6083490;19;20706;-68
2023/09/02 03:07:49;;;;;;;28.10;14.50;;;;;;;15.39;100.00;101771.66;6075101;19;20056;-69
2023/09/02 03:09:55;;;;;;;29.27;14.20;;;;;;;15.43;100.00;101764.44;6056483;19;20564;-69
2023/09/02 03:12:01;;;;;;;26.00;13.60;;;;;;;15.32;100.00;101773.75;6068151;19;20057;-68
2023/09/02 03:14:06;;;;;;;32.53;13.57;;;;;;;15.28;100.00;101777.47;6060091;19;20621;-69
2023/09/02 03:16:12;;;;;;;25.52;12.85;;;;;;;15.29;100.00;101773.00;6052994;19;20350;-70
2023/09/02 03:18:17;;;;;;;27.88;12.98;;;;;;;15.30;100.00;101780.91;6059922;19;20354;-67
2023/09/02 03:20:22;;;;;;;25.38;13.38;;;;;;;15.34;100.00;101782.47;6084037;19;20786;-70
2023/09/02 03:22:30;;;;;;;27.48;13.50;;;;;;;15.34;100.00;101782.47;6068575;19;20410;-69
2023/09/02 03:24:38;;;;;;;30.98;14.00;;;;;;;15.40;100.00;101785.75;6062829;19;20006;-69
2023/09/02 03:26:40;;;;;;;24.25;12.63;;;;;;;15.39;100.00;101784.06;6057584;19;20495;-70
2023/09/02 03:28:52;;;;;;;28.45;14.07;;;;;;;15.41;100.00;101792.81;6061898;19;20006;-68
2023/09/02 03:31:07;;;;;;;30.42;13.80;;;;;;;15.42;100.00;101790.06;6075665;19;20011;-67
2023/09/02 03:33:14;;;;;;;29.90;13.85;;;;;;;15.46;100.00;101793.47;6067477;19;20478;-68
2023/09/02 03:35:20;;;;;;;29.58;13.88;;;;;;;15.47;100.00;101787.22;6065652;19;20013;-67
2023/09/02 03:37:26;;;;;;;28.77;13.82;;;;;;;15.47;100.00;101790.72;6061953;19;20038;-69
2023/09/02 03:39:33;;;;;;;31.17;13.10;;;;;;;15.47;100.00;101789.88;6063082;19;20355;-69
2023/09/02 03:41:41;;;;;;;33.17;12.90;;;;;;;15.49;100.00;101780.91;6062695;19;20419;-69
2023/09/02 03:43:46;;;;;;;28.77;12.90;;;;;;;15.45;100.00;101795.22;6055912;19;20010;-68
2023/09/02 03:45:51;;;;;;;23.23;12.45;;;;;;;15.47;100.00;101793.38;6061259;19;20455;-68
2023/09/02 03:47:57;;;;;;;26.40;12.77;;;;;;;15.44;100.00;101797.97;6065232;19;20006;-68
2023/09/02 03:50:02;;;;;;;34.67;13.20;;;;;;;15.41;100.00;101806.06;6059351;19;20011;-69
2023/09/02 03:52:07;;;;;;;27.05;13.02;;;;;;;15.44;100.00;101803.25;6059360;19;20006;-69
2023/09/02 03:54:13;;;;;;;25.90;12.93;;;;;;;15.45;100.00;101804.97;6058714;19;20002;-68
2023/09/02 03:56:21;;;;;;;25.02;11.75;;;;;;;15.46;100.00;101810.19;6086592;19;20436;-69
2023/09/02 03:58:31;;;;;;;28.63;13.93;;;;;;;15.43;100.00;101801.50;6073317;19;20003;-69
2023/09/02 04:00:36;;;;;;;26.70;14.32;;;;;;;15.45;100.00;101802.31;6057950;19;20007;-68
2023/09/02 04:02:42;;;;;;;22.50;12.77;;;;;;;15.42;100.00;101799.81;6056684;19;20288;-68
2023/09/02 04:05:01;;;;;;;;;;;;;;;;;;;;;
2023/09/02 04:07:10;;;;;;;24.15;12.50;;;;;;;15.47;100.00;101797.81;6069147;19;20442;-68
2023/09/02 04:09:16;;;;;;;26.38;13.35;;;;;;;15.47;100.00;101800.47;6072629;19;20011;-68
2023/09/02 04:11:25;;;;;;;29.55;12.38;;;;;;;15.43;100.00;101797.09;6078138;19;20897;-69
2023/09/02 04:13:41;;;;;;;30.08;12.75;;;;;;;15.45;100.00;101797.00;6070983;19;20519;-68
2023/09/02 04:15:47;;;;;;;29.35;13.10;;;;;;;15.46;100.00;101807.56;6070631;19;20011;-69
2023/09/02 04:17:49;;;;;;;28.23;12.25;;;;;;;15.36;100.00;101815.03;6076289;19;20038;-70
2023/09/02 04:19:55;;;;;;;;;;;;;;;15.44;100.00;101809.41;6059896;19;20021;-68
2023/09/02 04:22:00;;;;;;;37.08;13.63;;;;;;;15.41;100.00;101808.69;6057326;19;19911;-69
2023/09/02 04:24:04;;;;;;;23.15;11.70;;;;;;;15.29;100.00;101808.28;6015473;19;20007;-69
2023/09/02 04:26:22;;;;;;;23.10;11.35;;;;;;;15.27;100.00;101801.34;6062617;19;20471;-70
2023/09/02 04:28:29;;;;;;;22.00;11.88;;;;;;;15.33;100.00;101801.09;6067746;19;20288;-68
2023/09/02 04:30:37;;;;;;;23.40;11.38;;;;;;;15.35;100.00;101810.69;6029221;19;20006;-67
2023/09/02 04:33:19;;;;;;;28.95;11.18;;;;;;;15.32;100.00;101825.84;6041094;19;20087;-69
2023/09/02 04:35:49;;;;;;;22.15;10.82;;;;;;;15.32;100.00;101820.53;6022659;19;20052;-69
2023/09/02 04:37:56;;;;;;;36.30;12.43;;;;;;;15.26;100.00;101824.31;6053279;19;20011;-68
2023/09/02 04:40:01;;;;;;;22.05;10.95;;;;;;;15.36;100.00;101836.22;6068202;19;20381;-68
2023/09/02 04:42:13;;;;;;;22.25;10.30;;;;;;;15.26;100.00;101826.97;6055585;19;20065;-69
2023/09/02 04:47:12;;;;;;;20.50;10.73;;;;;;;15.25;100.00;101827.91;6037690;19;20443;-67
2023/09/02 04:49:17;;;;;;;20.92;11.45;;;;;;;15.22;100.00;101833.34;6069089;19;20478;-68
2023/09/02 04:51:22;;;;;;;20.05;11.07;;;;;;;15.26;100.00;101828.78;6075748;19;20027;-69
2023/09/02 04:53:30;;;;;;;21.48;11.25;;;;;;;15.31;100.00;101832.06;6060113;19;20212;-68
2023/09/02 04:55:39;;;;;;;27.98;11.98;;;;;;;15.27;100.00;101836.66;6066202;19;20027;-70
2023/09/02 04:57:44;;;;;;;19.58;10.63;;;;;;;15.25;100.00;101833.22;6059826;19;20080;-69
2023/09/02 04:59:50;;;;;;;25.23;12.18;;;;;;;15.30;100.00;101833.88;6069681;19;20625;-69
2023/09/02 05:02:01;;;;;;;27.98;12.80;;;;;;;15.30;100.00;101833.88;6064470;19;20002;-69
2023/09/02 05:04:12;;;;;;;23.50;11.77;;;;;;;15.35;100.00;101838.97;6060745;19;20846;-70
2023/09/02 05:06:19;;;;;;;21.88;11.35;;;;;;;15.28;100.00;101825.13;6072932;19;20513;-69
2023/09/02 05:08:31;;;;;;;22.10;11.57;;;;;;;15.27;100.00;101841.06;6059437;19;20014;-69
2023/09/02 05:10:36;;;;;;;18.52;9.80;;;;;;;15.28;100.00;101843.66;6058542;19;20019;-69
2023/09/02 05:12:44;;;;;;;24.27;11.57;;;;;;;15.28;100.00;101842.81;6062636;19;20334;-69
2023/09/02 05:14:49;;;;;;;25.83;10.82;;;;;;;15.26;100.00;101845.50;6054408;19;20542;-69
2023/09/02 05:16:59;;;;;;;21.52;10.98;;;;;;;15.23;100.00;101850.94;6053202;19;20494;-68
2023/09/02 05:19:06;;;;;;;22.77;11.18;;;;;;;15.27;100.00;101855.19;6051065;19;20013;-69
2023/09/02 05:21:15;;;;;;;23.05;11.57;;;;;;;15.26;100.00;101858.75;6059663;19;20573;-69
2023/09/02 05:23:31;;;;;;;20.63;10.70;;;;;;;15.25;100.00;101851.75;6053769;19;20387;-67
2023/09/02 05:25:41;;;;;;;23.35;11.88;;;;;;;15.20;100.00;101855.53;6049083;19;20042;-69
2023/09/02 05:30:35;;;;;;;17.08;9.60;;;;;;;15.13;100.00;101873.44;6061054;19;20014;-70
2023/09/02 05:32:46;;;;;;;20.48;10.98;;;;;;;15.10;100.00;101876.25;6063306;19;20006;-69
2023/09/02 05:34:52;;;;;;;17.77;9.07;;;;;;;15.11;100.00;101877.94;6056428;19;20275;-68
2023/09/02 05:37:00;;;;;;;20.35;10.02;;;;;;;15.07;100.00;101886.97;6035630;19;20654;-71
2023/09/02 05:39:07;;;;;;;21.48;10.27;;;;;;;15.04;100.00;101885.31;6062360;19;20370;-69
2023/09/02 05:41:16;;;;;;;20.95;9.88;;;;;;;15.04;100.00;101879.16;6052154;19;20013;-70
2023/09/02 05:43:26;;;;;;;16.83;8.85;;;;;;;15.09;100.00;101878.03;6053978;19;20280;-69
2023/09/02 05:45:33;;;;;;;24.50;10.73;;;;;;;15.08;100.00;101876.28;6063013;19;20712;-69
2023/09/02 05:47:38;;;;;;;18.55;10.35;;;;;;;15.05;100.00;101880.88;6037576;19;20668;-68
2023/09/02 05:50:04;;;;;;;21.23;9.70;;;;;;;15.09;100.00;101877.19;6069095;19;20025;-69
2023/09/02 05:52:14;;;;;;;17.10;8.95;;;;;;;15.17;100.00;101876.84;6057915;19;20187;-70
2023/09/02 05:54:20;;;;;;;24.30;9.75;;;;;;;15.20;100.00;101882.88;6049200;19;20010;-69
2023/09/02 05:56:25;;;;;;;21.23;9.70;;;;;;;15.21;100.00;101884.56;6059172;19;20047;-70
2023/09/02 05:58:28;;;;;;;19.55;9.77;;;;;;;15.21;100.00;101879.28;6058762;19;20358;-69
2023/09/02 06:00:39;;;;;;;23.60;10.23;;;;;;;15.22;100.00;101888.06;6062901;19;20307;-68
2023/09/02 06:02:43;;;;;;;19.77;10.85;;;;;;;15.28;100.00;101877.25;6064084;19;20007;-69
2023/09/02 06:04:51;;;;;;;18.58;9.35;;;;;;;15.28;100.00;101887.81;6057168;19;20342;-68
2023/09/02 06:07:03;;;;;;;20.30;9.93;;;;;;;15.25;100.00;101886.16;6061833;19;20017;-71
2023/09/02 06:09:08;;;;;;;16.63;9.18;;;;;;;15.20;100.00;101895.25;6067688;19;20664;-69
2023/09/02 06:11:13;;;;;;;16.08;8.77;;;;;;;15.17;100.00;101896.25;6056871;19;20010;-70
2023/09/02 06:13:23;;;;;;;20.52;10.13;;;;;;;15.22;100.00;101896.00;6069696;19;20058;-69
2023/09/02 06:15:31;;;;;;;16.23;9.18;;;;;;;15.20;100.00;101897.91;6059734;19;20030;-69
2023/09/02 06:17:44;;;;;;;19.88;9.18;;;;;;;15.17;100.00;101901.53;6075833;19;20011;-69
2023/09/02 06:19:56;;;;;;;20.08;9.52;;;;;;;15.25;100.00;101907.34;6067640;19;20013;-69
2023/09/02 06:22:08;;;;;;;19.40;9.95;;;;;;;15.30;100.00;101918.63;6066888;19;20434;-69
2023/09/02 06:24:17;;;;;;;21.98;9.68;;;;;;;15.22;100.00;101931.31;6021305;19;20033;-68
2023/09/02 06:26:29;;;;;;;17.05;9.23;;;;;;;15.30;100.00;101933.66;6056582;19;20082;-70
2023/09/02 06:28:49;;;;;;;24.30;9.00;;;;;;;15.23;100.00;101940.13;6042358;19;20177;-67
2023/09/02 06:31:00;;;;;;;15.50;8.65;;;;;;;15.31;100.00;101941.50;6087533;19;20733;-69
2023/09/02 06:33:18;;;;;;;18.08;9.10;;;;;;;15.37;100.00;101951.84;6065728;19;20018;-68
2023/09/02 06:38:06;;;;;;;19.05;8.40;;;;;;;15.50;100.00;101956.63;6080728;19;20014;-69
2023/09/02 06:40:11;;;;;;;17.50;9.85;;;;;;;15.60;100.00;101957.94;6066329;19;20742;-69
2023/09/02 06:42:17;;;;;;;16.23;8.30;;;;;;;15.70;100.00;101959.28;6068634;19;20305;-70
2023/09/02 06:44:33;;;;;;;15.57;9.38;;;;;;;15.80;100.00;101973.00;6062795;19;20348;-69
2023/09/02 06:46:41;;;;;;;22.75;9.95;;;;;;;15.64;100.00;101961.31;6063822;19;21444;-69
2023/09/02 06:48:49;;;;;;;20.25;9.45;;;;;;;15.66;100.00;101978.84;6059951;19;20534;-69
2023/09/02 06:51:13;;;;;;;15.90;8.68;;;;;;;15.76;100.00;101980.22;6060647;19;20094;-69
2023/09/02 06:53:18;;;;;;;;;;;;;;;15.73;100.00;101982.16;6063132;19;20010;-68
2023/09/02 06:57:45;;;;;;;17.40;9.95;;;;;;;15.74;100.00;101994.47;6062496;19;20006;-70
2023/09/02 06:59:52;;;;;;;18.58;10.23;;;;;;;15.69;100.00;101989.38;6052052;19;20007;-69
2023/09/02 07:02:29;;;;;;;20.73;11.23;;;;;;;15.73;100.00;101990.94;6068283;19;20074;-69
2023/09/02 07:04:45;;;;;;;21.13;10.82;;;;;;;15.82;100.00;101986.16;6069267;19;20007;-70
2023/09/02 07:06:59;;;;;;;18.75;9.98;;;;;;;15.78;100.00;101983.66;6040782;19;20011;-70
2023/09/02 07:09:12;;;;;;;19.65;10.45;;;;;;;15.89;100.00;101985.84;6067205;19;20021;-68
2023/09/02 07:11:17;;;;;;;20.20;11.18;;;;;;;16.01;100.00;101995.06;6063224;19;20198;-69
2023/09/02 07:13:23;;;;;;;24.58;10.98;;;;;;;16.10;100.00;101994.63;6067847;19;20176;-69
2023/09/02 07:15:43;;;;;;;22.20;10.77;;;;;;;16.15;100.00;101995.28;6073807;19;20013;-70
2023/09/02 07:17:49;;;;;;;23.95;11.50;;;;;;;16.19;100.00;101999.53;6069035;19;20403;-70
2023/09/02 07:19:55;;;;;;;24.55;12.65;;;;;;;16.19;100.00;102003.94;6064543;19;20035;-69
2023/09/02 07:22:04;;;;;;;25.90;11.73;;;;;;;16.24;100.00;102008.13;6067234;19;20020;-70
2023/09/02 07:24:10;;;;;;;21.85;11.70;;;;;;;16.26;100.00;102009.84;6063254;19;20010;-70
2023/09/02 07:26:32;;;;;;;25.30;11.65;;;;;;;16.22;100.00;102019.75;6067199;19;20007;-69
2023/09/02 07:28:41;;;;;;;27.25;13.35;;;;;;;16.28;100.00;102019.44;6039996;19;20092;-69
2023/09/02 07:30:46;;;;;;;27.75;11.30;;;;;;;16.24;100.00;102021.38;6059738;19;20010;-69
2023/09/02 07:32:54;;;;;;;26.55;11.98;;;;;;;16.30;100.00;102019.34;6052996;19;20674;-69
2023/09/02 07:35:02;;;;;;;24.95;11.13;;;;;;;16.30;100.00;102027.31;6056676;19;20026;-69
2023/09/02 07:37:12;;;;;;;24.88;12.07;;;;;;;16.40;100.00;102033.94;6026143;19;20082;-69
2023/09/02 07:39:23;;;;;;;25.42;12.52;;;;;;;16.33;100.00;102032.50;6055427;19;20306;-70
2023/09/02 07:41:32;;;;;;;25.13;11.60;;;;;;;16.41;100.00;102036.53;6050927;19;20607;-69
2023/09/02 07:43:39;;;;;;;25.35;12.10;;;;;;;16.38;100.00;102039.31;6048806;19;20034;-69
2023/09/02 07:45:48;;;;;;;28.73;12.32;;;;;;;16.40;100.00;102036.59;6074701;19;20146;-69
2023/09/02 07:48:02;;;;;;;32.13;13.32;;;;;;;16.45;100.00;102040.75;6071202;19;20015;-70
2023/09/02 07:50:09;;;;;;;28.88;14.60;;;;;;;16.51;100.00;102036.97;6066958;19;20118;-70
2023/09/02 07:52:17;;;;;;;31.42;13.93;;;;;;;16.50;100.00;102053.81;6043959;19;20386;-70
2023/09/02 07:54:22;;;;;;;32.85;14.02;;;;;;;16.63;100.00;102054.09;6059202;19;20024;-69
2023/09/02 07:56:29;;;;;;;33.90;15.80;;;;;;;16.73;100.00;102062.50;6060913;19;20355;-71
2023/09/02 07:58:34;;;;;;;28.55;13.00;;;;;;;16.77;100.00;102061.41;6061872;19;20010;-69
2023/09/02 08:00:48;;;;;;;35.92;13.50;;;;;;;16.71;100.00;102062.56;6054627;19;20654;-69
2023/09/02 08:03:21;;;;;;;37.53;13.85;;;;;;;16.72;100.00;102068.72;6047648;19;20026;-70
2023/09/02 08:05:30;;;;;;;29.88;14.75;;;;;;;16.74;100.00;102072.19;6043987;19;20506;-69
2023/09/02 08:10:32;;;;;;;32.63;14.32;;;;;;;16.87;100.00;102066.25;6053684;19;20522;-70
2023/09/02 08:12:42;;;;;;;31.27;13.88;;;;;;;16.93;100.00;102072.19;6067356;19;20003;-69
2023/09/02 08:14:47;;;;;;;33.85;14.32;;;;;;;16.97;100.00;102065.81;6067037;19;20539;-70
2023/09/02 08:16:55;;;;;;;29.63;13.05;;;;;;;16.95;100.00;102057.91;6047289;19;20022;-69
2023/09/02 08:19:06;;;;;;;32.83;14.20;;;;;;;17.09;100.00;102065.25;6069254;19;20207;-69
2023/09/02 08:21:30;;;;;;;37.38;15.10;;;;;;;17.09;100.00;102065.25;6061747;19;20756;-71
2023/09/02 08:26:00;;;;;;;34.13;16.17;;;;;;;17.16;100.00;102064.00;6054681;19;20010;-72
2023/09/02 08:28:07;;;;;;;37.70;16.67;;;;;;;17.25;100.00;102065.34;6052224;19;20474;-73
2023/09/02 08:30:14;;;;;;;36.75;16.52;;;;;;;17.34;100.00;102062.22;6048452;19;20823;-70
2023/09/02 08:32:16;;;;;;;41.78;17.17;;;;;;;17.38;100.00;102054.97;6069089;19;20007;-72
2023/09/02 08:34:22;;;;;;;46.28;18.02;;;;;;;17.42;100.00;102057.41;6055052;19;20526;-72
2023/09/02 08:36:38;;;;;;;41.08;18.95;;;;;;;17.44;100.00;102052.88;6060446;19;20715;-72
2023/09/02 08:38:43;;;;;;;38.85;16.80;;;;;;;17.42;100.00;102062.72;6046307;19;20017;-72
2023/09/02 08:40:50;;;;;;;38.67;15.18;;;;;;;17.44;100.00;102060.84;6059186;19;20487;-71
2023/09/02 08:42:59;;;;;;;33.92;15.25;;;;;;;17.58;100.00;102059.28;6033359;19;20014;-72
2023/09/02 08:45:09;;;;;;;39.55;16.67;;;;;;;17.64;100.00;102073.16;6059095;19;20035;-72
2023/09/02 08:47:18;;;;;;;39.90;18.13;;;;;;;17.77;100.00;102068.91;6034999;19;20011;-72
2023/09/02 08:49:29;;;;;;;41.58;17.25;;;;;;;17.80;100.00;102083.00;6059696;19;20020;-72
2023/09/02 08:51:36;;;;;;;39.28;15.27;;;;;;;17.97;100.00;102086.53;6057779;19;20071;-70
2023/09/02 08:53:49;;;;;;;38.30;17.27;;;;;;;18.05;100.00;102090.59;6051460;19;19998;-71
2023/09/02 08:55:55;;;;;;;40.35;16.08;;;;;;;18.09;100.00;102087.72;6059909;19;20185;-73
2023/09/02 08:58:00;;;;;;;44.20;18.52;;;;;;;18.16;100.00;102090.88;6057556;19;20514;-72
2023/09/02 09:00:06;;;;;;;41.30;17.40;;;;;;;18.12;100.00;102090.19;6050128;19;20731;-72
2023/09/02 09:02:13;;;;;;;40.63;18.50;;;;;;;18.42;100.00;102098.34;6050248;19;20050;-71
2023/09/02 09:04:21;;;;;;;45.33;16.52;;;;;;;18.39;100.00;102093.19;6054307;19;20034;-72
2023/09/02 09:06:29;;;;;;;45.42;18.00;;;;;;;18.42;100.00;102098.34;6053819;19;20163;-71
2023/09/02 09:08:39;;;;;;;36.15;15.95;;;;;;;18.27;100.00;102104.47;6040224;19;20014;-73
2023/09/02 09:10:48;;;;;;;45.03;18.05;;;;;;;18.33;100.00;102108.63;6056958;19;20370;-72
2023/09/02 09:12:54;;;;;;;39.95;17.25;;;;;;;18.58;100.00;102116.16;6057509;19;20054;-70
2023/09/02 09:15:01;;;;;;;45.83;18.50;;;;;;;18.66;100.00;102113.94;6064066;19;20029;-71
2023/09/02 09:17:10;;;;;;;46.88;17.13;;;;;;;18.79;100.00;102116.84;6057457;19;20010;-71
2023/09/02 09:19:12;;;;;;;47.15;19.48;;;;;;;18.80;100.00;102119.44;6067324;19;20018;-72
2023/09/02 09:21:17;;;;;;;;;;;;;;;18.83;100.00;102123.72;6062686;19;20495;-70
2023/09/02 09:23:48;;;;;;;42.20;17.92;;;;;;;18.85;100.00;102127.13;6041480;19;20035;-72
2023/09/02 09:26:18;;;;;;;39.80;17.02;;;;;;;19.06;100.00;102127.75;6046055;19;20446;-73
2023/09/02 09:28:29;;;;;;;40.63;15.48;;;;;;;19.27;100.00;102129.25;6069596;19;20040;-71
2023/09/02 09:30:45;;;;;;;39.22;15.95;;;;;;;19.38;100.00;102130.41;6063909;19;20011;-71
2023/09/02 09:33:10;;;;;;;44.47;17.60;;;;;;;19.44;100.00;102130.94;6066566;19;20342;-71
2023/09/02 09:35:40;;;;;;;41.15;17.13;;;;;;;19.53;100.00;102135.72;6064003;19;20011;-72
2023/09/02 09:37:55;;;;;;;44.40;17.02;;;;;;;19.68;100.00;102133.16;6067215;19;20021;-70
2023/09/02 09:40:01;;;;;;;35.47;16.13;;;;;;;19.67;100.00;102137.66;6061416;19;20784;-71
2023/09/02 09:42:07;;;;;;;39.65;17.67;;;;;;;19.81;100.00;102133.31;6057872;19;20542;-70
2023/09/02 09:44:13;;;;;;;35.80;17.85;;;;;;;19.79;100.00;102140.53;6058698;19;20031;-70
2023/09/02 09:46:19;;;;;;;39.53;15.40;;;;;;;19.98;100.00;102150.97;6056641;19;20155;-70
2023/09/02 09:48:21;;;;;;;35.25;17.40;;;;;;;19.94;100.00;102139.63;6060213;19;20015;-70
2023/09/02 09:50:32;;;;;;;;;;;;;;;19.95;100.00;102146.69;6042505;19;20492;-70
2023/09/02 09:52:37;;;;;;;36.13;15.60;;;;;;;20.08;100.00;102144.13;6059383;19;20578;-71
2023/09/02 09:54:47;;;;;;;33.65;14.93;;;;;;;20.20;100.00;102155.91;6056521;19;20555;-70
2023/09/02 09:56:53;;;;;;;29.77;14.85;;;;;;;20.15;100.00;102157.03;6059689;19;20411;-71